Princeton, West Virginia
Current Conditions -  °F | °C
As of 1:52 PM on Saturday 25 Oct 2014 (Local Time) from KBLF Reporting Station
Clear Clear  
Wind Chill: 62°   Ceiling: Unl
Heat Index: 62°   Visibility: 10mi
Dew Point: 41°   Wind: 14mph
Humidity: 46%   Direction: 290°WNW
Pressure: 30.04"   Gusts: NA
Location:  37.37°N, 81.1°W
Report Text: KBLF 251752Z AUTO 29012KT 10SM CLR 17/05 A3004 RMK AO2 SLP158 T01670050 10167 20044 58013
Loading
Personal Weather Stations






























Interactive Weather Map
Tropical Storm Tracking
New forecast layout! Learn more

10-Day Weather Forecast

Advertisements
Track Severe Weather on mobile